Time;durP1;ratioP1;P1;durP2;ratioP2;P2;SDS_P1;SDS_P2;PMS_P1;PMS_P2;Temp;Humidity;BMP_temperature;BMP_pressure;BME280_temperature;BME280_humidity;BME280_pressure;Samples;Min_cycle;Max_cycle;Signal;HPM_P1;HPM_P2
2022/10/24 00:01:09;;;;;;;8.00;2.50;;;16.40;99.90;;;15.64;100.00;97023.78;5011552;28;20400;-81
2022/10/24 00:03:35;;;;;;;7.03;2.17;;;16.40;99.90;;;15.71;100.00;97018.09;5010942;28;20483;-81
2022/10/24 00:06:01;;;;;;;7.63;2.72;;;16.40;99.90;;;15.63;100.00;97021.44;5011342;28;20401;-81
2022/10/24 00:08:27;;;;;;;6.18;2.22;;;16.40;99.90;;;15.60;100.00;97022.00;5011392;28;20890;-81
2022/10/24 00:10:52;;;;;;;8.10;1.67;;;16.30;99.90;;;15.53;100.00;97018.88;5011175;28;20483;-81
2022/10/24 00:13:18;;;;;;;6.85;1.90;;;16.30;99.90;;;15.50;100.00;97018.38;5010879;28;20409;-81
2022/10/24 00:15:48;;;;;;;4.97;2.00;;;16.20;99.90;;;15.47;100.00;97018.97;5010804;28;20503;-81
2022/10/24 00:18:15;;;;;;;7.28;1.73;;;16.20;99.90;;;15.45;100.00;97015.00;5011172;28;20404;-81
2022/10/24 00:20:41;;;;;;;7.97;2.13;;;16.20;99.90;;;15.40;100.00;97015.09;5011005;28;20419;-81
2022/10/24 00:23:08;;;;;;;6.50;2.10;;;16.20;99.90;;;15.32;100.00;97026.41;5009390;28;20416;-81
2022/10/24 00:25:34;;;;;;;13.27;2.30;;;16.10;99.90;;;15.23;100.00;97022.81;5010952;28;20408;-81
2022/10/24 00:28:00;;;;;;;7.88;1.80;;;16.00;99.90;;;15.18;100.00;97023.69;5010970;28;20543;-81
2022/10/24 00:30:26;;;;;;;8.18;2.33;;;16.00;99.90;;;15.13;100.00;97025.63;5010921;28;20852;-81
2022/10/24 00:35:23;;;;;;;8.88;2.17;;;15.80;99.90;;;15.02;100.00;97035.66;5027400;28;20438;-81
2022/10/24 00:37:49;;;;;;;7.47;2.20;;;15.80;99.90;;;14.97;100.00;97030.38;5030536;28;20462;-81
2022/10/24 00:40:18;;;;;;;8.10;1.85;;;15.80;99.90;;;14.94;100.00;97038.94;5030421;28;20403;-81
2022/10/24 00:42:44;;;;;;;7.70;2.03;;;15.70;99.90;;;14.91;100.00;97045.63;5029797;28;20443;-81
2022/10/24 00:45:45;;;;;;;9.02;2.25;;;15.70;99.90;;;14.87;100.00;97033.19;5010830;28;20408;-81
2022/10/24 00:48:19;;;;;;;13.32;2.40;;;15.60;99.90;;;14.80;100.00;97033.53;5009320;28;20778;-81
2022/10/24 00:50:51;;;;;;;6.35;1.90;;;15.60;99.90;;;14.78;100.00;97029.56;5010728;28;20392;-80
2022/10/24 00:53:18;;;;;;;8.30;2.20;;;15.50;99.90;;;14.71;100.00;97037.91;5010308;28;20890;-80
2022/10/24 00:55:49;;;;;;;14.83;2.37;;;15.50;99.90;;;14.66;100.00;97029.97;5010614;28;20512;-81
2022/10/24 00:58:16;;;;;;;8.45;2.30;;;15.50;99.90;;;14.63;100.00;97041.19;5009409;28;20875;-80
2022/10/24 01:00:42;;;;;;;14.60;2.50;;;15.40;99.90;;;14.59;100.00;97040.97;5010662;28;20396;-81
2022/10/24 01:03:10;;;;;;;13.33;2.43;;;15.40;99.90;;;14.55;100.00;97042.63;5008861;28;20412;-80
2022/10/24 01:05:46;;;;;;;7.70;2.05;;;15.40;99.90;;;14.51;100.00;97040.81;5010533;28;20455;-80
2022/10/24 01:08:26;;;;;;;7.38;2.13;;;15.30;99.90;;;14.48;100.00;97036.06;5010594;28;20418;-80
2022/10/24 01:11:03;;;;;;;7.40;2.38;;;15.30;99.90;;;14.42;100.00;97042.53;5010550;28;20492;-80
2022/10/24 01:13:44;;;;;;;15.95;2.75;;;15.20;99.90;;;14.40;100.00;97050.00;5010051;28;20404;-80
2022/10/24 01:16:16;;;;;;;22.27;2.73;;;15.20;99.90;;;14.37;100.00;97047.84;5010396;28;20468;-81
2022/10/24 01:18:47;;;;;;;11.35;2.63;;;15.20;99.90;;;14.37;100.00;97048.66;5010610;28;20408;-81
2022/10/24 01:21:24;;;;;;;13.67;2.40;;;15.10;99.90;;;14.41;100.00;97047.06;5010576;28;20705;-81
2022/10/24 01:24:24;;;;;;;18.48;3.00;;;15.20;99.90;;;14.40;100.00;97053.44;5010107;28;20428;-81
2022/10/24 01:27:15;;;;;;;12.73;2.30;;;15.20;99.90;;;14.41;100.00;97047.06;5012380;28;20400;-81
2022/10/24 01:29:56;;;;;;;10.98;2.40;;;15.20;99.90;;;14.43;100.00;97046.78;5014301;28;20487;-82
2022/10/24 01:32:34;;;;;;;11.70;2.40;;;15.20;99.90;;;14.51;100.00;97051.47;5014005;28;20397;-80
2022/10/24 01:35:13;;;;;;;13.70;3.00;;;15.30;99.90;;;14.53;100.00;97050.09;5013411;28;20420;-81
2022/10/24 01:37:46;;;;;;;8.40;2.40;;;15.30;99.90;;;14.64;100.00;97037.47;5029403;28;20444;-81
2022/10/24 01:40:19;;;;;;;10.98;2.20;;;15.40;99.90;;;14.65;100.00;97041.72;5014079;28;20440;-81
2022/10/24 01:42:48;;;;;;;14.68;2.50;;;15.40;99.90;;;14.71;100.00;97035.25;5013668;28;20424;-81
2022/10/24 01:45:26;;;;;;;6.07;2.20;;;15.50;99.90;;;14.70;100.00;97033.66;5013953;28;20961;-81
2022/10/24 01:47:55;;;;;;;11.25;2.80;;;15.50;99.90;;;14.69;100.00;97042.72;5013812;28;20408;-81
2022/10/24 01:50:24;;;;;;;11.38;2.22;;;15.40;99.90;;;14.67;100.00;97051.00;5013983;28;20420;-81
2022/10/24 01:52:54;;;;;;;20.77;3.25;;;15.50;99.90;;;14.61;100.00;97049.47;5013269;28;20498;-82
2022/10/24 01:55:20;;;;;;;12.10;2.70;;;15.40;99.90;;;14.61;100.00;97040.69;5013643;28;20412;-81
2022/10/24 01:57:46;;;;;;;11.85;2.42;;;15.40;99.90;;;14.58;100.00;97039.41;5013698;28;20417;-81
2022/10/24 02:00:19;;;;;;;6.37;2.20;;;15.40;99.90;;;14.59;100.00;97046.28;5013756;28;20547;-81
2022/10/24 02:02:54;;;;;;;15.65;2.78;;;15.40;99.90;;;14.57;100.00;97042.34;5013176;28;20419;-81
2022/10/24 02:05:24;;;;;;;12.13;2.85;;;15.30;99.90;;;14.55;100.00;97055.16;5013695;28;20401;-81
2022/10/24 02:07:55;;;;;;;21.90;3.15;;;15.30;99.90;;;14.53;100.00;97057.28;5013552;28;20463;-81
2022/10/24 02:10:26;;;;;;;4.00;1.98;;;15.30;99.90;;;14.53;100.00;97060.75;5013652;28;20432;-81
2022/10/24 02:12:58;;;;;;;14.30;2.50;;;15.30;99.90;;;14.48;100.00;97065.34;5013001;28;20405;-81
2022/10/24 02:15:30;;;;;;;12.35;3.10;;;15.30;99.90;;;14.47;100.00;97064.56;5013325;28;21155;-80
2022/10/24 02:17:56;;;;;;;16.80;3.15;;;15.30;99.90;;;14.42;100.00;97059.28;5013314;28;20491;-80
2022/10/24 02:20:28;;;;;;;13.10;2.83;;;15.20;99.90;;;14.42;100.00;97051.31;5013351;28;20416;-80
2022/10/24 02:23:02;;;;;;;13.23;2.63;;;15.20;99.90;;;14.40;100.00;97053.44;5012796;28;20455;-80
2022/10/24 02:25:34;;;;;;;9.07;2.33;;;15.20;99.90;;;14.40;100.00;97047.34;5013257;28;20901;-80
2022/10/24 02:28:07;;;;;;;10.02;2.38;;;15.20;99.90;;;14.38;100.00;97036.97;5013255;28;20401;-80
2022/10/24 02:30:41;;;;;;;6.13;2.38;;;15.10;99.90;;;14.37;100.00;97030.00;5013106;28;20401;-80
2022/10/24 02:33:08;;;;;;;15.13;2.95;;;15.20;99.90;;;14.35;100.00;97034.84;5012537;28;20408;-81
2022/10/24 02:35:36;;;;;;;14.57;2.83;;;15.10;99.90;;;14.30;100.00;97025.03;5012976;28;20818;-80
2022/10/24 02:38:10;;;;;;;11.35;2.53;;;15.10;99.90;;;14.29;100.00;97020.78;5011683;28;20404;-80
2022/10/24 02:40:36;;;;;;;14.35;2.90;;;15.10;99.90;;;14.29;100.00;97015.44;5012866;28;20405;-80
2022/10/24 02:43:05;;;;;;;7.00;2.23;;;15.10;99.90;;;14.33;100.00;97010.38;5012553;28;20440;-80
2022/10/24 02:45:32;;;;;;;16.60;3.28;;;15.10;99.90;;;14.32;100.00;97012.22;5012664;28;20399;-80
2022/10/24 02:48:05;;;;;;;12.20;3.22;;;15.10;99.90;;;14.40;100.00;96997.53;5012795;28;20409;-80
2022/10/24 02:50:31;;;;;;;19.40;3.08;;;15.10;99.90;;;14.36;100.00;97001.03;5012714;28;20886;-80
2022/10/24 02:52:57;;;;;;;16.27;3.17;;;15.10;99.90;;;14.36;100.00;97003.69;5012182;28;20405;-80
2022/10/24 02:55:24;;;;;;;15.77;3.85;;;15.10;99.90;;;14.30;100.00;97005.59;5012506;28;20425;-81
2022/10/24 02:57:50;;;;;;;12.68;3.72;;;15.10;99.90;;;14.36;100.00;97001.78;5012541;28;20459;-81
2022/10/24 03:00:17;;;;;;;9.73;2.80;;;15.10;99.90;;;14.46;100.00;97016.91;5012576;28;20455;-80
2022/10/24 03:02:43;;;;;;;9.88;2.85;;;15.20;99.90;;;14.58;100.00;97012.78;5012164;28;20487;-81
2022/10/24 03:05:10;;;;;;;16.38;3.67;;;15.30;99.90;;;14.59;100.00;97014.31;5012210;28;20399;-80
2022/10/24 03:07:36;;;;;;;8.57;2.95;;;15.40;99.90;;;14.67;100.00;97012.91;5012471;28;20401;-80
2022/10/24 03:10:03;;;;;;;15.20;3.25;;;15.40;99.90;;;14.77;100.00;97017.31;5012399;28;20901;-80
2022/10/24 03:12:29;;;;;;;11.32;3.10;;;15.40;99.90;;;14.75;100.00;97014.94;5012139;28;20879;-80
2022/10/24 03:14:55;;;;;;;15.25;3.38;;;15.50;99.90;;;14.78;100.00;97024.22;5011832;28;20420;-82
2022/10/24 03:17:22;;;;;;;13.25;3.75;;;15.50;99.90;;;14.90;100.00;97022.72;5012181;28;20404;-81
2022/10/24 03:19:48;;;;;;;11.60;3.17;;;15.60;99.90;;;15.00;100.00;97014.59;5012149;28;20424;-81
2022/10/24 03:22:15;;;;;;;13.48;3.25;;;15.70;99.90;;;14.99;100.00;97013.00;5012181;28;20431;-81
2022/10/24 03:24:41;;;;;;;12.43;4.05;;;15.70;99.90;;;15.00;100.00;97021.81;5010274;28;20777;-82
2022/10/24 03:27:07;;;;;;;10.80;3.13;;;15.70;99.90;;;15.10;100.00;97019.00;5012027;28;20407;-81
2022/10/24 03:29:33;;;;;;;14.80;3.28;;;15.80;99.90;;;15.04;100.00;97033.47;5011902;28;20397;-81
2022/10/24 03:31:59;;;;;;;15.32;3.40;;;15.80;99.90;;;15.22;100.00;97037.22;5011947;28;20893;-82
2022/10/24 03:34:25;;;;;;;17.63;3.38;;;15.90;99.90;;;15.23;100.00;97031.59;5011296;28;20421;-81
2022/10/24 03:36:51;;;;;;;16.40;3.42;;;15.90;99.90;;;15.16;100.00;97028.50;5027052;28;20428;-81
2022/10/24 03:39:18;;;;;;;11.75;3.22;;;15.90;99.90;;;15.14;100.00;97014.66;5011821;28;20499;-81
2022/10/24 03:41:44;;;;;;;8.90;2.78;;;15.90;99.90;;;15.10;100.00;97017.13;5011824;28;20412;-81
2022/10/24 03:44:10;;;;;;;13.68;3.67;;;15.80;99.90;;;15.09;100.00;97018.22;5011243;28;20909;-80
2022/10/24 03:46:36;;;;;;;14.02;3.10;;;15.80;99.90;;;15.07;100.00;97007.03;5011607;28;20408;-81
2022/10/24 03:49:02;;;;;;;10.63;3.63;;;15.80;99.90;;;15.06;100.00;97012.66;5011515;28;20408;-81
2022/10/24 03:51:28;;;;;;;12.18;2.80;;;15.80;99.90;;;15.05;100.00;97006.53;5010461;28;20423;-82
2022/10/24 03:53:54;;;;;;;13.85;3.65;;;15.80;99.90;;;15.02;100.00;97009.78;5011066;28;20397;-81
2022/10/24 03:56:21;;;;;;;17.50;3.93;;;15.80;99.90;;;14.99;100.00;97022.88;5011562;28;20928;-82
2022/10/24 03:58:47;;;;;;;12.05;3.33;;;15.70;99.90;;;14.95;100.00;97021.88;5011220;28;20409;-81
2022/10/24 04:01:17;;;;;;;12.60;3.50;;;15.70;99.90;;;14.91;100.00;97024.31;5003306;28;21014;-82
2022/10/24 04:03:43;;;;;;;18.23;3.28;;;15.70;99.90;;;14.88;100.00;97022.25;4999583;28;20978;-82
2022/10/24 04:06:10;;;;;;;22.20;3.92;;;15.70;99.90;;;14.84;100.00;97029.22;5007159;28;20393;-80
2022/10/24 04:08:36;;;;;;;7.47;2.72;;;15.60;99.90;;;14.87;100.00;97025.19;5001774;28;20527;-81
2022/10/24 04:11:02;;;;;;;11.07;3.43;;;15.60;99.90;;;14.88;100.00;97027.56;5003060;28;20405;-80
2022/10/24 04:13:31;;;;;;;11.10;3.13;;;15.60;99.90;;;14.91;100.00;97029.66;4998776;28;20418;-81
2022/10/24 04:15:57;;;;;;;17.75;4.45;;;15.60;99.90;;;14.99;100.00;97025.53;5000817;28;20419;-79
2022/10/24 04:18:23;;;;;;;17.00;3.60;;;15.70;99.90;;;14.96;100.00;97026.13;5002035;28;20962;-79
2022/10/24 04:20:49;;;;;;;11.32;3.35;;;15.70;99.90;;;14.94;100.00;97037.06;5000441;28;20441;-78
2022/10/24 04:23:15;;;;;;;14.23;3.33;;;15.70;99.90;;;14.91;100.00;97031.50;5002311;28;20409;-79
2022/10/24 04:25:43;;;;;;;9.63;2.80;;;15.60;99.90;;;14.93;100.00;97037.38;5016442;28;20409;-86
2022/10/24 04:28:09;;;;;;;10.70;2.90;;;15.60;99.90;;;14.93;100.00;97027.50;5013081;28;20407;-85
2022/10/24 04:30:36;;;;;;;12.23;2.80;;;15.70;99.90;;;14.94;100.00;97028.28;5004111;28;20503;-86
2022/10/24 04:33:02;;;;;;;9.73;2.70;;;15.70;99.90;;;14.96;100.00;97018.16;5007993;28;20432;-80
2022/10/24 04:35:28;;;;;;;6.80;2.60;;;15.70;99.90;;;14.96;100.00;97000.25;5003735;28;20508;-84
2022/10/24 04:37:54;;;;;;;12.60;3.50;;;15.70;99.90;;;14.93;100.00;97005.38;5001961;28;20461;-83
2022/10/24 04:40:20;;;;;;;12.20;2.97;;;15.70;99.90;;;14.91;100.00;97003.00;5004475;28;20961;-77
2022/10/24 04:42:45;;;;;;;9.43;3.20;;;15.70;99.90;;;14.91;100.00;96994.22;5003753;28;20936;-78
2022/10/24 04:45:11;;;;;;;13.02;3.05;;;15.70;99.90;;;14.87;100.00;97007.34;5001285;28;20397;-77
2022/10/24 04:47:39;;;;;;;13.25;3.33;;;15.60;99.90;;;14.89;100.00;97017.69;5003693;28;20424;-79
2022/10/24 04:50:06;;;;;;;13.88;3.10;;;15.60;99.90;;;14.89;100.00;97020.34;5002880;28;20436;-79
2022/10/24 04:52:32;;;;;;;10.57;3.13;;;15.60;99.90;;;14.90;100.00;97019.28;5005229;28;20423;-77
2022/10/24 04:54:58;;;;;;;12.53;3.20;;;15.60;99.90;;;14.93;100.00;97016.84;5000246;28;20428;-84
2022/10/24 04:57:24;;;;;;;13.27;3.47;;;15.60;99.90;;;14.93;100.00;97010.72;5010791;28;20408;-78
2022/10/24 04:59:50;;;;;;;13.73;3.35;;;15.70;99.90;;;14.90;100.00;97019.28;5010283;28;20423;-82
2022/10/24 05:02:16;;;;;;;16.83;3.50;;;15.70;99.90;;;14.93;100.00;97021.38;5013299;28;20408;-75
2022/10/24 05:04:43;;;;;;;11.30;3.40;;;15.70;99.90;;;14.97;100.00;97019.69;5014038;28;20401;-76
2022/10/24 05:07:09;;;;;;;9.90;2.92;;;15.70;99.90;;;15.02;100.00;97022.31;5014242;28;20408;-78
2022/10/24 05:09:35;;;;;;;15.07;3.55;;;15.80;99.90;;;15.10;100.00;97016.34;5014565;28;20401;-77
2022/10/24 05:12:01;;;;;;;16.10;3.25;;;15.80;99.90;;;15.21;100.00;97019.63;5014433;28;20818;-75
2022/10/24 05:14:27;;;;;;;14.68;3.10;;;15.90;99.90;;;15.42;100.00;97016.38;5007111;28;20421;-78
2022/10/24 05:16:53;;;;;;;11.43;3.20;;;16.10;99.90;;;15.43;100.00;97020.63;5012454;28;20420;-78
2022/10/24 05:19:19;;;;;;;20.35;3.20;;;16.10;99.90;;;15.50;97.79;97020.25;5012656;28;20462;-78
2022/10/24 05:21:46;;;;;;;10.82;2.92;;;16.20;99.90;;;15.46;97.12;97032.59;5012266;28;20408;-78
2022/10/24 05:24:12;;;;;;;9.10;2.80;;;16.20;99.90;;;15.68;100.00;97024.00;5012399;28;20409;-78
2022/10/24 05:26:38;;;;;;;11.05;2.80;;;16.30;99.90;;;15.58;100.00;97022.28;5005397;28;20763;-78
2022/10/24 05:29:04;;;;;;;12.35;2.72;;;16.30;99.90;;;15.61;100.00;97040.38;5013310;28;20480;-78
2022/10/24 05:31:30;;;;;;;13.18;2.88;;;16.30;99.90;;;15.62;100.00;97036.63;5011724;28;20492;-78
2022/10/24 05:33:56;;;;;;;6.68;2.58;;;16.30;99.90;;;15.60;100.00;97046.81;4998173;28;20444;-79
2022/10/24 05:36:22;;;;;;;8.53;2.40;;;16.30;99.90;;;15.51;100.00;97045.84;5025607;28;20505;-79
2022/10/24 05:38:49;;;;;;;12.57;2.87;;;16.20;99.90;;;15.49;100.00;97043.47;4995813;28;20445;-79
2022/10/24 05:41:15;;;;;;;11.23;2.80;;;16.20;99.90;;;15.42;100.00;97045.69;4994361;28;20417;-78
2022/10/24 05:43:40;;;;;;;18.20;3.72;;;16.10;99.90;;;15.45;100.00;97052.34;5002243;28;20405;-79
2022/10/24 05:46:06;;;;;;;14.15;3.75;;;16.10;99.90;;;15.27;100.00;97045.13;5007709;28;20923;-79
2022/10/24 05:48:32;;;;;;;10.90;2.90;;;16.00;99.90;;;15.16;100.00;97046.38;5004965;28;20470;-80
2022/10/24 05:50:59;;;;;;;11.68;3.33;;;15.90;99.90;;;15.02;100.00;97044.44;5009547;28;20439;-78
2022/10/24 05:53:25;;;;;;;11.38;2.90;;;15.80;99.90;;;14.88;100.00;97053.44;5011348;28;20887;-79
2022/10/24 05:55:53;;;;;;;11.65;3.10;;;15.60;99.90;;;14.81;100.00;97053.75;5005168;28;20917;-79
2022/10/24 05:58:21;;;;;;;15.45;3.80;;;15.60;99.90;;;14.77;100.00;97054.63;5006271;28;20935;-82
2022/10/24 06:00:47;;;;;;;9.77;2.92;;;15.50;99.90;;;14.75;100.00;97078.09;5004406;28;20412;-75
2022/10/24 06:03:13;;;;;;;26.20;4.53;;;15.50;99.90;;;14.69;100.00;97082.69;5025178;28;20420;-82
2022/10/24 06:05:39;;;;;;;23.93;5.10;;;15.50;99.90;;;14.55;100.00;97079.13;5012463;28;20404;-84
2022/10/24 06:08:05;;;;;;;21.77;4.43;;;15.40;99.90;;;14.33;100.00;97077.72;5012608;28;20401;-82
2022/10/24 06:10:31;;;;;;;23.00;4.70;;;15.20;99.90;;;14.21;100.00;97065.84;5012316;28;20770;-83
2022/10/24 06:12:58;;;;;;;16.35;4.90;;;15.00;99.90;;;14.18;100.00;97083.22;5010746;28;20478;-80
2022/10/24 06:15:24;;;;;;;18.25;4.25;;;14.90;99.90;;;14.13;100.00;97103.75;5013175;28;20423;-81
2022/10/24 06:17:50;;;;;;;23.65;5.40;;;14.90;99.90;;;14.08;100.00;97106.44;5013228;28;20544;-82
2022/10/24 06:20:16;;;;;;;18.80;5.30;;;14.90;99.90;;;14.06;100.00;97095.31;5013198;28;20405;-81
2022/10/24 06:22:45;;;;;;;27.13;5.85;;;14.90;99.90;;;14.02;100.00;97104.91;5012511;28;20755;-82
2022/10/24 06:25:12;;;;;;;24.48;5.82;;;14.80;99.90;;;13.99;100.00;97084.97;5012067;28;21210;-80
2022/10/24 06:27:39;;;;;;;24.63;5.90;;;14.80;99.90;;;14.00;100.00;97088.41;5012587;28;20436;-85
2022/10/24 06:30:09;;;;;;;39.13;6.15;;;14.80;99.90;;;13.98;100.00;97088.72;5012712;28;20909;-81
2022/10/24 06:32:35;;;;;;;23.23;5.93;;;14.80;99.90;;;14.00;100.00;97091.09;5013065;28;20527;-85
2022/10/24 06:35:01;;;;;;;22.48;5.68;;;14.80;99.90;;;13.97;100.00;97086.34;5051070;22;20441;-74
2022/10/24 06:37:27;;;;;;;20.77;5.82;;;14.80;99.90;;;13.98;100.00;97096.72;5052518;28;20801;-74
2022/10/24 06:39:53;;;;;;;22.67;6.35;;;14.80;99.90;;;14.02;100.00;97097.72;5052344;28;20397;-76
2022/10/24 06:42:19;;;;;;;22.77;6.10;;;14.80;99.90;;;13.91;100.00;97098.88;5052539;28;20901;-76
2022/10/24 06:44:45;;;;;;;27.17;6.38;;;14.70;99.90;;;13.90;100.00;97097.31;5038936;28;20861;-76
2022/10/24 06:47:12;;;;;;;24.17;6.47;;;14.70;99.90;;;13.92;100.00;97100.47;5032497;28;20405;-73
2022/10/24 06:49:38;;;;;;;23.60;6.33;;;14.70;99.90;;;13.96;100.00;97109.50;5032546;28;20474;-75
2022/10/24 06:52:04;;;;;;;26.23;6.47;;;14.70;99.90;;;13.98;100.00;97112.66;5032398;28;20456;-76
2022/10/24 06:54:32;;;;;;;30.38;7.10;;;14.80;99.90;;;14.01;100.00;97119.28;5030510;28;20419;-75
2022/10/24 06:56:58;;;;;;;27.05;6.30;;;14.80;99.90;;;14.01;100.00;97119.28;5032283;28;20917;-75
2022/10/24 06:59:24;;;;;;;29.23;6.78;;;14.80;99.90;;;14.01;100.00;97128.06;5023936;28;20414;-75
2022/10/24 07:01:50;;;;;;;22.05;6.38;;;14.80;99.90;;;14.04;100.00;97156.00;5025339;28;20412;-73
2022/10/24 07:04:18;;;;;;;23.00;6.07;;;14.80;99.90;;;14.05;100.00;97168.25;5023125;28;20403;-73
2022/10/24 07:06:44;;;;;;;15.52;5.85;;;14.80;99.90;;;14.03;100.00;97147.22;5024802;28;21113;-73
2022/10/24 07:09:11;;;;;;;27.55;5.93;;;14.80;99.90;;;13.99;100.00;97124.88;5023338;28;20410;-75
2022/10/24 07:11:37;;;;;;;23.80;5.93;;;14.80;99.90;;;13.97;100.00;97126.25;5024234;28;20414;-73
2022/10/24 07:14:04;;;;;;;19.27;6.57;;;14.70;99.90;;;13.94;100.00;97133.72;5023892;28;20406;-74
2022/10/24 07:16:30;;;;;;;31.05;6.63;;;14.70;99.90;;;13.85;100.00;97139.91;5029257;28;20450;-73
2022/10/24 07:18:56;;;;;;;19.50;6.50;;;14.60;99.90;;;13.85;100.00;97153.19;5030570;28;20602;-74
2022/10/24 07:21:27;;;;;;;22.33;6.32;;;14.60;99.90;;;13.72;100.00;97140.53;5030891;28;20406;-74
2022/10/24 07:23:55;;;;;;;25.67;6.70;;;14.50;99.90;;;13.72;100.00;97141.31;5022538;28;20412;-73
2022/10/24 07:26:23;;;;;;;19.48;6.60;;;14.50;99.90;;;13.76;100.00;97141.56;5023460;28;20494;-74
2022/10/24 07:28:53;;;;;;;17.42;5.57;;;14.50;99.90;;;13.85;100.00;97130.06;5025735;28;20411;-73
2022/10/24 07:31:21;;;;;;;30.15;7.43;;;14.60;99.90;;;13.93;100.00;97128.66;5030951;28;20434;-74
2022/10/24 07:33:48;;;;;;;28.08;7.25;;;14.70;99.90;;;13.89;100.00;97130.31;5030963;28;20417;-75
2022/10/24 07:36:16;;;;;;;25.73;6.30;;;14.70;99.90;;;13.82;100.00;97135.16;5030269;28;20964;-74
2022/10/24 07:38:44;;;;;;;26.53;5.93;;;14.60;99.90;;;13.82;100.00;97138.59;5046915;28;20406;-73
2022/10/24 07:41:10;;;;;;;26.65;6.38;;;14.60;99.90;;;13.77;100.00;97132.50;5031366;28;20438;-74
2022/10/24 07:43:36;;;;;;;26.20;6.37;;;14.60;99.90;;;13.78;100.00;97144.75;5031031;28;20486;-76
2022/10/24 07:46:06;;;;;;;23.48;6.43;;;14.50;99.90;;;13.80;100.00;97147.94;5030771;28;20888;-76
2022/10/24 07:48:32;;;;;;;24.38;6.43;;;14.60;99.90;;;13.80;100.00;97154.03;5028621;28;21116;-75
2022/10/24 07:50:58;;;;;;;27.60;6.45;;;14.60;99.90;;;13.79;100.00;97138.34;5030682;28;20486;-74
2022/10/24 07:53:26;;;;;;;29.90;7.50;;;14.60;99.90;;;13.78;100.00;97137.56;5028237;28;20650;-74
2022/10/24 07:55:53;;;;;;;24.83;7.25;;;14.60;99.90;;;13.80;100.00;97158.56;5030327;28;20415;-74
2022/10/24 07:58:19;;;;;;;22.17;6.03;;;14.60;99.90;;;13.82;100.00;97169.75;5029959;28;20913;-75
2022/10/24 08:00:46;;;;;;;28.50;6.03;;;14.60;99.90;;;13.83;100.00;97168.66;5030465;28;20409;-74
2022/10/24 08:03:12;;;;;;;24.25;6.15;;;14.60;99.90;;;13.84;100.00;97170.22;5030786;28;20441;-73
2022/10/24 08:05:38;;;;;;;27.30;6.38;;;14.60;99.90;;;13.86;100.00;97176.06;5030309;28;20411;-73
2022/10/24 08:08:05;;;;;;;29.80;6.15;;;14.70;99.90;;;13.81;100.00;97173.47;5031001;28;20403;-73
2022/10/24 08:10:31;;;;;;;13.55;5.35;;;14.60;99.90;;;13.80;100.00;97172.66;5031031;28;20618;-74
2022/10/24 08:12:58;;;;;;;20.77;5.65;;;14.60;99.90;;;13.81;100.00;97163.63;5028966;28;20462;-76
2022/10/24 08:15:26;;;;;;;18.73;6.00;;;14.60;99.90;;;13.85;100.00;97153.19;5029892;28;20411;-73
2022/10/24 08:17:52;;;;;;;20.00;5.50;;;14.60;99.90;;;13.91;100.00;97112.97;5028145;28;20545;-76
2022/10/24 08:20:19;;;;;;;21.47;5.50;;;14.70;99.90;;;13.97;100.00;97091.66;5030414;28;20445;-75
2022/10/24 08:22:45;;;;;;;24.67;5.65;;;14.70;99.90;;;13.90;100.00;97106.09;5030563;28;20457;-74
2022/10/24 08:25:13;;;;;;;24.90;5.30;;;14.70;99.90;;;13.89;100.00;97120.47;5030122;28;20912;-74
2022/10/24 08:27:39;;;;;;;23.53;5.37;;;14.70;99.90;;;13.84;100.00;97119.69;5030310;28;20419;-74
2022/10/24 08:30:08;;;;;;;17.05;5.15;;;14.60;99.90;;;13.83;100.00;97115.47;5028962;28;20963;-75
2022/10/24 08:32:34;;;;;;;18.30;4.70;;;14.60;99.90;;;13.87;100.00;97121.78;5040104;28;20408;-75
2022/10/24 08:35:00;;;;;;;23.45;4.93;;;14.60;99.90;;;13.81;100.00;97106.94;5030300;28;20415;-73
2022/10/24 08:37:26;;;;;;;15.93;4.68;;;14.60;99.90;;;13.76;100.00;97122.94;5028954;28;20529;-74
2022/10/24 08:39:54;;;;;;;13.02;4.70;;;14.50;99.90;;;13.79;100.00;97117.88;5029918;28;20457;-74
2022/10/24 08:42:22;;;;;;;24.33;5.32;;;14.50;99.90;;;13.87;100.00;97113.81;5029476;28;20514;-74
2022/10/24 08:44:49;;;;;;;16.92;4.53;;;14.60;99.90;;;13.79;100.00;97120.53;5029343;28;20411;-74
2022/10/24 08:47:27;;;;;;;14.77;3.97;;;14.60;99.90;;;13.86;100.00;97122.88;5029754;28;20510;-73
2022/10/24 08:50:01;;;;;;;23.52;5.22;;;14.60;99.90;;;13.91;100.00;97130.81;5029725;28;20411;-74
2022/10/24 08:52:33;;;;;;;17.10;4.93;;;14.70;99.90;;;13.94;100.00;97135.56;5028641;28;20857;-75
2022/10/24 08:55:12;;;;;;;13.57;4.05;;;14.70;99.90;;;14.03;100.00;97141.09;5028422;28;20498;-74
2022/10/24 08:57:42;;;;;;;13.65;4.40;;;14.80;99.90;;;14.07;100.00;97131.47;5027185;28;20779;-75
2022/10/24 09:00:18;;;;;;;20.75;5.53;;;14.80;99.90;;;14.11;100.00;97116.53;5029508;28;20403;-74
2022/10/24 09:02:53;;;;;;;15.15;4.45;;;14.90;99.90;;;14.11;100.00;97116.53;5029601;28;20545;-75
2022/10/24 09:05:24;;;;;;;16.65;4.30;;;14.90;99.90;;;14.05;100.00;97126.44;5025996;28;20445;-74
2022/10/24 09:08:01;;;;;;;12.80;3.97;;;14.80;99.90;;;14.11;100.00;97125.31;5023606;28;20509;-74
2022/10/24 09:10:39;;;;;;;16.10;4.20;;;14.90;99.90;;;14.16;100.00;97129.81;5029599;28;20418;-74
2022/10/24 09:13:12;;;;;;;13.37;4.20;;;14.90;99.90;;;14.18;100.00;97130.31;5029344;28;20463;-75
2022/10/24 09:15:42;;;;;;;16.67;4.47;;;14.90;99.90;;;14.17;100.00;97148.16;5029945;28;20446;-74
2022/10/24 09:18:19;;;;;;;17.67;4.40;;;14.90;99.90;;;14.19;100.00;97154.00;5029855;28;20423;-76
2022/10/24 09:20:48;;;;;;;9.80;3.70;;;14.90;99.90;;;14.25;100.00;97176.06;5029858;28;20414;-74
2022/10/24 09:23:16;;;;;;;15.57;4.65;;;15.00;99.90;;;14.26;100.00;97178.44;5029169;28;20411;-74
2022/10/24 09:25:47;;;;;;;12.10;4.25;;;15.00;99.90;;;14.25;100.00;97179.50;5029633;28;20900;-73
2022/10/24 09:28:13;;;;;;;12.07;4.20;;;15.00;99.90;;;14.18;100.00;97172.91;5029548;28;20407;-75
2022/10/24 09:30:40;;;;;;;14.70;3.78;;;14.90;99.90;;;14.15;100.00;97176.13;5029950;28;20413;-76
2022/10/24 09:33:23;;;;;;;10.35;3.88;;;14.90;99.90;;;14.12;100.00;97182.81;5028319;28;20745;-74
2022/10/24 09:35:51;;;;;;;20.13;4.50;;;14.80;99.90;;;13.91;100.00;97189.34;5029142;28;20474;-75
2022/10/24 09:38:32;;;;;;;11.35;3.95;;;14.70;99.90;;;13.98;100.00;97189.84;5026702;28;20418;-74
2022/10/24 09:41:02;;;;;;;11.25;4.40;;;14.70;99.90;;;14.00;100.00;97174.38;5029657;28;20430;-74
2022/10/24 09:43:39;;;;;;;12.93;4.13;;;14.80;99.90;;;14.02;100.00;97172.25;5029141;28;20505;-74
2022/10/24 09:46:08;;;;;;;20.38;4.57;;;14.80;99.90;;;14.00;100.00;97171.72;5028999;28;20431;-74
2022/10/24 09:48:47;;;;;;;16.83;4.90;;;14.80;99.90;;;14.01;100.00;97172.50;5032137;28;20406;-74
2022/10/24 09:51:25;;;;;;;13.73;3.97;;;14.70;99.90;;;14.02;100.00;97171.44;5032787;28;20540;-76
2022/10/24 09:54:05;;;;;;;12.40;4.40;;;14.80;99.90;;;14.02;100.00;97169.56;5032813;28;20403;-74
2022/10/24 09:56:40;;;;;;;15.27;4.60;;;14.80;99.90;;;14.02;100.00;97174.91;5032813;28;20423;-74
2022/10/24 09:59:31;;;;;;;15.75;4.43;;;14.80;99.90;;;14.09;100.00;97175.38;5032826;28;20473;-75
2022/10/24 10:02:25;;;;;;;18.30;4.30;;;14.80;99.90;;;14.09;100.00;97167.41;5023313;28;20414;-75
2022/10/24 10:05:19;;;;;;;15.32;4.70;;;14.80;99.90;;;14.16;100.00;97175.06;5026523;28;20431;-75
2022/10/24 10:07:47;;;;;;;15.00;4.22;;;14.90;99.90;;;14.18;100.00;97165.72;5024535;28;20413;-74
2022/10/24 10:10:31;;;;;;;12.63;4.57;;;15.00;99.90;;;14.25;100.00;97173.38;5031599;28;20403;-73
2022/10/24 10:13:03;;;;;;;15.13;4.10;;;15.00;99.90;;;14.28;100.00;97175.50;5031971;28;20419;-74
2022/10/24 10:15:35;;;;;;;12.00;3.67;;;15.00;99.90;;;14.31;100.00;97173.06;5031963;28;20647;-73
2022/10/24 10:18:20;;;;;;;17.27;4.20;;;15.10;99.90;;;14.35;100.00;97168.00;5032488;28;20417;-73